Time;durP1;ratioP1;P1;durP2;ratioP2;P2;SDS_P1;SDS_P2;PMS_P1;PMS_P2;Temp;Humidity;BMP_temperature;BMP_pressure;BME280_temperature;BME280_humidity;BME280_pressure;Samples;Min_cycle;Max_cycle;Signal;HPM_P1;HPM_P2
2021/06/28 00:01:27;;;;;;;12.33;10.85;;;;;;;21.60;93.25;101267.52;1684073;85;20947;-80
2021/06/28 00:03:53;;;;;;;14.90;10.28;;;;;;;21.60;93.64;101269.36;1684319;85;20940;-80
2021/06/28 00:06:20;;;;;;;15.23;9.80;;;;;;;21.59;93.85;101267.70;1684099;85;21050;-80
2021/06/28 00:08:47;;;;;;;12.25;10.45;;;;;;;21.58;94.08;101262.91;1684178;85;21110;-80
2021/06/28 00:11:15;;;;;;;13.80;10.15;;;;;;;21.57;94.34;101270.48;1684145;85;21605;-79
2021/06/28 00:13:43;;;;;;;12.45;10.43;;;;;;;21.56;94.45;101270.66;1684224;85;21051;-81
2021/06/28 00:16:13;;;;;;;11.88;10.30;;;;;;;21.55;94.68;101272.95;1684273;85;20995;-84
2021/06/28 00:18:40;;;;;;;12.60;9.45;;;;;;;21.54;95.04;101269.97;1684317;85;20931;-81
2021/06/28 00:21:09;;;;;;;10.20;9.20;;;;;;;21.53;95.25;101278.41;1684036;85;21068;-82
2021/06/28 00:23:36;;;;;;;11.33;10.05;;;;;;;21.54;95.33;101278.72;1684214;85;21160;-81
2021/06/28 00:26:04;;;;;;;15.10;9.60;;;;;;;21.52;95.47;101274.09;1684208;85;20907;-80
2021/06/28 00:28:32;;;;;;;12.30;10.60;;;;;;;21.53;95.60;101268.33;1684109;84;21004;-80
2021/06/28 00:30:59;;;;;;;12.10;10.00;;;;;;;21.54;95.66;101263.36;1686209;84;21482;-82
2021/06/28 00:33:26;;;;;;;13.43;9.70;;;;;;;21.53;95.72;101266.52;1703801;84;21030;-78
2021/06/28 00:35:53;;;;;;;11.08;8.90;;;;;;;21.50;95.94;101260.72;1704180;84;21093;-79
2021/06/28 00:38:19;;;;;;;11.50;9.88;;;;;;;21.45;96.15;101253.75;1703971;84;20993;-79
2021/06/28 00:40:46;;;;;;;13.32;9.68;;;;;;;21.40;96.58;101257.36;1703853;84;21076;-80
2021/06/28 00:43:13;;;;;;;12.13;9.15;;;;;;;21.34;96.94;101261.46;1703908;84;21069;-78
2021/06/28 00:45:41;;;;;;;13.35;9.25;;;;;;;21.32;97.11;101257.30;1704015;84;20985;-80
2021/06/28 00:48:12;;;;;;;12.78;9.53;;;;;;;21.30;97.21;101257.47;1703898;84;21133;-78
2021/06/28 00:50:43;;;;;;;10.70;9.45;;;;;;;21.29;97.46;101258.44;1703904;84;20958;-79
2021/06/28 00:53:12;;;;;;;14.10;9.50;;;;;;;21.27;97.54;101257.78;1704216;84;20958;-77
2021/06/28 00:55:41;;;;;;;12.65;8.65;;;;;;;21.24;97.76;101265.18;1704014;84;21022;-81
2021/06/28 00:58:08;;;;;;;11.85;9.00;;;;;;;21.23;97.80;101260.39;1703730;84;21069;-80
2021/06/28 01:00:35;;;;;;;11.00;9.43;;;;;;;21.19;97.72;101257.71;1703995;84;21198;-81
2021/06/28 01:03:02;;;;;;;12.18;8.85;;;;;;;21.18;97.78;101261.36;1704003;83;21005;-81
2021/06/28 01:05:32;;;;;;;11.70;9.43;;;;;;;21.19;97.85;101256.91;1703839;84;20947;-79
2021/06/28 01:08:00;;;;;;;11.57;8.88;;;;;;;21.16;97.90;101252.75;1704005;84;20988;-80
2021/06/28 01:10:27;;;;;;;12.53;9.73;;;;;;;21.13;97.96;101257.50;1704004;84;21013;-81
2021/06/28 01:12:54;;;;;;;14.50;8.80;;;;;;;21.09;98.10;101254.37;1704093;84;21760;-81
2021/06/28 01:15:23;;;;;;;13.83;8.78;;;;;;;21.07;98.24;101251.01;1703831;84;21037;-78
2021/06/28 01:17:50;;;;;;;12.18;8.93;;;;;;;21.04;98.42;101248.68;1703929;84;21030;-80
2021/06/28 01:20:21;;;;;;;10.28;8.75;;;;;;;21.02;98.51;101250.17;1704104;84;21005;-81
2021/06/28 01:22:55;;;;;;;10.88;9.30;;;;;;;21.02;98.65;101252.81;1703789;84;21010;-78
2021/06/28 01:25:24;;;;;;;10.08;8.65;;;;;;;21.01;98.87;101250.31;1703902;84;21188;-79
2021/06/28 01:27:51;;;;;;;20.00;10.00;;;;;;;20.97;99.23;101247.14;1703751;84;21619;-82
2021/06/28 01:30:26;;;;;;;10.30;8.83;;;;;;;20.95;99.62;101246.97;1703907;84;21077;-88
2021/06/28 01:32:53;;;;;;;10.80;9.05;;;;;;;20.91;100.00;101244.30;1688704;84;21062;-85
2021/06/28 01:35:20;;;;;;;10.95;8.90;;;;;;;20.88;100.00;101248.08;1683878;85;20975;-81
2021/06/28 01:37:46;;;;;;;12.88;9.48;;;;;;;20.84;100.00;101251.16;1684114;84;21104;-84
2021/06/28 01:40:15;;;;;;;12.95;9.05;;;;;;;20.78;100.00;101252.61;1683907;84;20952;-85
2021/06/28 01:42:42;;;;;;;12.53;9.05;;;;;;;20.74;100.00;101253.08;1684029;85;20963;-82
2021/06/28 01:45:11;;;;;;;15.18;9.65;;;;;;;20.70;100.00;101260.47;1684094;85;21055;-82
2021/06/28 01:47:39;;;;;;;9.98;8.68;;;;;;;20.66;100.00;101263.06;1684095;85;21656;-79
2021/06/28 01:50:08;;;;;;;14.85;9.75;;;;;;;20.61;100.00;101256.59;1684342;85;21136;-80
2021/06/28 01:52:35;;;;;;;9.78;8.75;;;;;;;20.57;100.00;101255.58;1683923;85;21051;-81
2021/06/28 01:55:04;;;;;;;13.78;9.38;;;;;;;20.54;100.00;101263.80;1684109;84;21005;-81
2021/06/28 01:57:30;;;;;;;13.78;9.08;;;;;;;20.52;100.00;101260.94;1677618;85;21063;-82
2021/06/28 01:59:57;;;;;;;11.90;8.98;;;;;;;20.48;100.00;101266.20;1684028;85;21067;-82
2021/06/28 02:02:23;;;;;;;12.73;9.00;;;;;;;20.45;100.00;101268.63;1683996;85;21068;-81
2021/06/28 02:04:50;;;;;;;13.72;9.43;;;;;;;20.42;100.00;101276.83;1684040;84;20935;-82
2021/06/28 02:07:18;;;;;;;13.85;8.50;;;;;;;20.36;100.00;101273.48;1683943;84;21011;-78
2021/06/28 02:09:44;;;;;;;12.10;9.00;;;;;;;20.31;100.00;101275.75;1684079;84;21062;-83
2021/06/28 02:12:11;;;;;;;11.45;8.73;;;;;;;20.28;100.00;101281.31;1683889;85;21086;-82
2021/06/28 02:14:38;;;;;;;11.50;8.35;;;;;;;20.23;100.00;101280.88;1683994;85;21114;-84
2021/06/28 02:17:05;;;;;;;11.45;8.53;;;;;;;20.22;100.00;101277.09;1684035;84;21094;-84
2021/06/28 02:19:32;;;;;;;9.95;8.10;;;;;;;20.17;100.00;101282.80;1684311;85;21017;-84
2021/06/28 02:22:00;;;;;;;11.85;8.10;;;;;;;20.15;100.00;101282.61;1684180;85;21496;-81
2021/06/28 02:24:27;;;;;;;9.88;8.45;;;;;;;20.14;100.00;101284.89;1654108;85;21149;-82
2021/06/28 02:26:54;;;;;;;13.13;9.85;;;;;;;20.13;100.00;101283.26;1684214;85;21130;-81
2021/06/28 02:29:20;;;;;;;12.98;7.60;;;;;;;20.13;100.00;101291.16;1684264;84;20896;-81
2021/06/28 02:31:48;;;;;;;10.00;8.05;;;;;;;20.12;100.00;101289.49;1688044;84;21970;-79
2021/06/28 02:34:15;;;;;;;10.48;8.08;;;;;;;20.11;100.00;101289.98;1704262;84;20974;-82
2021/06/28 02:36:43;;;;;;;11.08;8.68;;;;;;;20.13;100.00;101295.95;1704175;84;21065;-79
2021/06/28 02:39:10;;;;;;;9.60;8.68;;;;;;;20.11;100.00;101289.98;1703957;84;21946;-82
2021/06/28 02:41:37;;;;;;;15.90;8.65;;;;;;;20.10;100.00;101296.73;1703825;84;21761;-83
2021/06/28 02:44:05;;;;;;;11.43;7.97;;;;;;;20.11;100.00;101295.73;1703914;84;21002;-83
2021/06/28 02:46:32;;;;;;;12.45;8.28;;;;;;;20.10;100.00;101292.77;1703836;84;21057;-81
2021/06/28 02:48:58;;;;;;;10.20;8.05;;;;;;;20.10;100.00;101287.50;1703970;84;21053;-81
2021/06/28 02:51:26;;;;;;;9.80;8.00;;;;;;;20.12;100.00;101289.01;1704282;84;21113;-79
2021/06/28 02:53:54;;;;;;;9.83;7.97;;;;;;;20.14;100.00;101297.59;1704187;84;20907;-79
2021/06/28 02:56:21;;;;;;;10.32;7.58;;;;;;;20.15;100.00;101299.25;1704112;84;20946;-80
2021/06/28 02:58:55;;;;;;;12.35;7.67;;;;;;;20.17;100.00;101307.83;1704099;84;21001;-78
2021/06/28 03:01:24;;;;;;;16.95;7.90;;;;;;;20.19;100.00;101307.70;1703927;84;21081;-80
2021/06/28 03:03:51;;;;;;;9.38;7.42;;;;;;;20.20;100.00;101310.17;1704287;83;21108;-83
2021/06/28 03:06:18;;;;;;;10.32;7.28;;;;;;;20.22;100.00;101308.23;1704140;84;20943;-78
2021/06/28 03:08:45;;;;;;;11.15;7.70;;;;;;;20.24;100.00;101308.91;1704202;84;21821;-79
2021/06/28 03:11:16;;;;;;;9.85;7.22;;;;;;;20.27;100.00;101311.77;1704260;84;21058;-82
2021/06/28 03:13:43;;;;;;;12.28;8.50;;;;;;;20.27;100.00;101307.81;1704258;84;20943;-80
2021/06/28 03:16:11;;;;;;;10.38;7.67;;;;;;;20.29;100.00;101312.47;1704156;84;21031;-78
2021/06/28 03:18:38;;;;;;;9.68;7.42;;;;;;;20.29;100.00;101313.30;1704106;84;20981;-81
2021/06/28 03:21:07;;;;;;;10.88;6.78;;;;;;;20.30;100.00;101316.25;1704171;84;21002;-82
2021/06/28 03:23:35;;;;;;;11.38;7.30;;;;;;;20.32;100.00;101320.91;1704107;84;20970;-79
2021/06/28 03:26:02;;;;;;;10.20;8.05;;;;;;;20.34;100.00;101325.53;1704036;84;20956;-80
2021/06/28 03:28:28;;;;;;;14.47;7.62;;;;;;;20.36;100.00;101328.00;1704070;84;21095;-79
2021/06/28 03:30:55;;;;;;;12.30;7.80;;;;;;;20.39;100.00;101329.86;1704086;84;21612;-80
2021/06/28 03:33:22;;;;;;;9.75;7.70;;;;;;;20.43;100.00;101325.13;1690044;84;20943;-79
2021/06/28 03:35:48;;;;;;;11.38;7.72;;;;;;;20.47;100.00;101323.85;1684150;85;21584;-80
2021/06/28 03:38:15;;;;;;;10.63;8.48;;;;;;;20.48;100.00;101332.11;1684242;85;21098;-81
2021/06/28 03:40:43;;;;;;;9.83;7.72;;;;;;;20.51;100.00;101324.74;1684329;85;20904;-81
2021/06/28 03:43:10;;;;;;;8.98;7.15;;;;;;;20.54;100.00;101331.03;1684260;85;21638;-79
2021/06/28 03:45:38;;;;;;;12.70;7.95;;;;;;;20.54;100.00;101330.20;1684392;85;21061;-86
2021/06/28 03:48:06;;;;;;;8.85;7.22;;;;;;;20.57;100.00;101337.33;1684257;85;21093;-80
2021/06/28 03:50:33;;;;;;;12.18;7.80;;;;;;;20.59;100.00;101334.03;1654909;85;21096;-80
2021/06/28 03:53:00;;;;;;;12.80;7.62;;;;;;;20.62;100.00;101334.70;1677889;84;21130;-84
2021/06/28 03:55:28;;;;;;;15.05;8.50;;;;;;;20.65;100.00;101329.13;1684026;85;20963;-82
2021/06/28 03:57:54;;;;;;;10.48;8.08;;;;;;;20.68;100.00;101327.55;1684032;85;21821;-79
2021/06/28 04:00:23;;;;;;;10.13;7.62;;;;;;;20.72;100.00;101321.80;1684355;85;20931;-84
2021/06/28 04:02:51;;;;;;;8.60;7.70;;;;;;;20.77;100.00;101333.23;1684475;85;21020;-85
2021/06/28 04:05:21;;;;;;;10.55;8.00;;;;;;;20.83;100.00;101333.94;1684328;84;21169;-78
2021/06/28 04:07:49;;;;;;;8.95;7.65;;;;;;;20.88;100.00;101332.50;1683916;85;20999;-84
2021/06/28 04:10:18;;;;;;;12.03;7.53;;;;;;;20.92;100.00;101327.27;1684105;85;21548;-82
2021/06/28 04:12:47;;;;;;;9.50;7.58;;;;;;;20.98;100.00;101325.82;1650809;85;21058;-81
2021/06/28 04:15:14;;;;;;;14.28;7.53;;;;;;;21.05;100.00;101329.52;1684288;85;20920;-82
2021/06/28 04:17:45;;;;;;;10.40;7.17;;;;;;;21.13;100.00;101326.96;1684177;84;21447;-83
2021/06/28 04:20:14;;;;;;;10.90;7.47;;;;;;;21.21;100.00;101334.95;1684318;85;21538;-83
2021/06/28 04:22:41;;;;;;;14.23;6.70;;;;;;;21.29;100.00;101342.92;1684134;85;21510;-81
2021/06/28 04:25:10;;;;;;;11.35;6.72;;;;;;;21.36;100.00;101343.97;1684023;85;21006;-82
2021/06/28 04:27:37;;;;;;;8.20;6.65;;;;;;;21.44;99.81;101341.89;1684259;85;21007;-83
2021/06/28 04:30:07;;;;;;;8.50;6.45;;;;;;;21.52;99.20;101346.72;1684558;84;21746;-86
2021/06/28 04:32:36;;;;;;;11.53;6.72;;;;;;;21.61;96.84;101350.23;1681444;85;21016;-81
2021/06/28 04:35:07;;;;;;;8.00;6.28;;;;;;;21.70;96.45;101348.49;1674623;85;20861;-78
2021/06/28 04:37:34;;;;;;;9.38;7.10;;;;;;;21.75;96.41;101351.00;1681009;85;20991;-84
2021/06/28 04:40:04;;;;;;;8.43;6.28;;;;;;;21.82;95.83;101351.20;1681417;84;20948;-76
2021/06/28 04:42:31;;;;;;;7.60;5.92;;;;;;;21.90;95.15;101353.90;1674383;85;21118;-83
2021/06/28 04:44:57;;;;;;;12.10;6.85;;;;;;;21.94;94.02;101350.80;1674508;85;21079;-80
2021/06/28 04:47:24;;;;;;;12.28;6.78;;;;;;;22.02;94.54;101351.31;1674533;85;21523;-84
2021/06/28 04:49:51;;;;;;;9.48;6.70;;;;;;;22.09;94.06;101353.17;1681785;85;21087;-85
2021/06/28 04:52:17;;;;;;;9.80;6.65;;;;;;;22.15;92.93;101354.34;1681923;84;21042;-88
2021/06/28 04:54:45;;;;;;;10.40;7.20;;;;;;;22.19;92.42;101357.50;1681501;85;21136;-82
2021/06/28 04:57:16;;;;;;;8.73;6.87;;;;;;;22.24;92.33;101356.02;1682191;84;21023;-80
2021/06/28 04:59:41;;;;;;;10.23;7.30;;;;;;;22.29;92.10;101356.88;1674454;85;20912;-84
2021/06/28 05:02:07;;;;;;;10.78;7.15;;;;;;;22.33;91.62;101356.41;1681122;85;21061;-85
2021/06/28 05:04:34;;;;;;;11.03;7.00;;;;;;;22.39;91.67;101357.58;1681946;85;20955;-79
2021/06/28 05:07:00;;;;;;;9.50;7.33;;;;;;;22.45;91.28;101358.26;1674420;85;21133;-83
2021/06/28 05:09:27;;;;;;;8.63;7.80;;;;;;;22.50;90.92;101355.95;1674436;85;21501;-81
2021/06/28 05:11:55;;;;;;;9.88;7.67;;;;;;;22.55;90.03;101366.40;1681436;85;21019;-81
2021/06/28 05:14:22;;;;;;;8.20;7.35;;;;;;;22.62;89.38;101359.45;1681175;85;21481;-80
2021/06/28 05:16:49;;;;;;;8.45;7.60;;;;;;;;;;1681586;84;20993;-80
2021/06/28 05:19:15;;;;;;;12.07;7.62;;;;;;;22.75;88.01;101364.30;1674310;85;21140;-84
2021/06/28 05:21:43;;;;;;;9.98;7.12;;;;;;;22.82;87.10;101367.95;1674533;85;21005;-84
2021/06/28 05:24:09;;;;;;;9.53;7.53;;;;;;;22.92;85.27;101367.80;1681503;85;21022;-81
2021/06/28 05:26:36;;;;;;;9.45;6.85;;;;;;;22.98;85.07;101368.46;1681668;85;21011;-84
2021/06/28 05:29:03;;;;;;;6.85;6.25;;;;;;;23.03;84.88;101372.30;1674744;85;21074;-83
2021/06/28 05:31:31;;;;;;;7.78;6.12;;;;;;;23.08;84.30;101371.78;1681423;85;22742;-81
2021/06/28 05:33:58;;;;;;;8.30;5.95;;;;;;;23.12;83.63;101373.12;1682842;85;20979;-83
2021/06/28 05:36:24;;;;;;;8.48;6.22;;;;;;;23.17;82.86;101379.56;1686679;85;20943;-81
2021/06/28 05:38:51;;;;;;;9.68;6.15;;;;;;;23.22;82.60;101383.05;1686432;85;21474;-81
2021/06/28 05:41:18;;;;;;;7.72;6.80;;;;;;;23.29;82.07;101380.58;1686611;85;20994;-92
2021/06/28 05:43:45;;;;;;;8.93;6.78;;;;;;;23.38;81.82;101380.89;1686559;85;21172;-85
2021/06/28 05:46:12;;;;;;;10.80;5.97;;;;;;;23.44;81.51;101385.55;1686533;85;21522;-82
2021/06/28 05:48:39;;;;;;;8.33;5.83;;;;;;;23.50;81.07;101385.72;1686537;85;21074;-84
2021/06/28 05:51:07;;;;;;;6.33;5.30;;;;;;;23.55;81.15;101386.52;1686483;85;20967;-83
2021/06/28 05:53:34;;;;;;;8.30;5.67;;;;;;;23.59;79.72;101390.00;1686707;85;20987;-83
2021/06/28 05:56:02;;;;;;;7.50;5.65;;;;;;;23.63;78.43;101391.83;1686592;85;21129;-79
2021/06/28 05:58:29;;;;;;;7.47;6.15;;;;;;;23.68;78.31;101390.81;1686335;85;20987;-80
2021/06/28 06:00:58;;;;;;;9.93;6.15;;;;;;;23.72;76.86;101392.14;1686329;85;20990;-77
2021/06/28 06:03:26;;;;;;;7.55;6.05;;;;;;;23.78;76.73;101391.95;1686814;84;20967;-80
2021/06/28 06:05:53;;;;;;;6.55;5.95;;;;;;;23.83;75.99;101391.80;1687138;85;21074;-84
2021/06/28 06:08:24;;;;;;;6.20;5.60;;;;;;;23.88;74.57;101392.09;1687196;85;21136;-80
2021/06/28 06:10:56;;;;;;;8.08;5.90;;;;;;;23.92;74.69;101388.12;1686669;85;21075;-86
2021/06/28 06:13:25;;;;;;;6.57;5.57;;;;;;;23.94;74.50;101391.42;1665236;85;21010;-83
2021/06/28 06:15:52;;;;;;;8.60;6.15;;;;;;;23.98;74.23;101392.73;1686481;85;21547;-82
2021/06/28 06:18:20;;;;;;;8.48;5.95;;;;;;;24.05;73.45;101400.34;1686584;85;21002;-85
2021/06/28 06:20:47;;;;;;;7.97;5.40;;;;;;;24.12;73.57;101397.88;1686532;85;21164;-87
2021/06/28 06:23:14;;;;;;;8.63;4.90;;;;;;;24.18;72.05;101403.32;1686295;85;20971;-82
2021/06/28 06:25:44;;;;;;;5.58;4.92;;;;;;;24.25;69.96;101404.76;1686446;85;21444;-81
2021/06/28 06:28:11;;;;;;;6.22;5.60;;;;;;;24.31;70.48;101409.41;1686576;85;21026;-85
2021/06/28 06:30:37;;;;;;;11.35;5.35;;;;;;;24.34;70.49;101410.38;1686445;85;21039;-81
2021/06/28 06:33:04;;;;;;;9.18;4.70;;;;;;;24.41;70.64;101403.89;1686034;85;21135;-83
2021/06/28 06:35:33;;;;;;;6.60;4.50;;;;;;;24.48;69.11;101410.97;1683963;85;20990;-81
2021/06/28 06:38:00;;;;;;;8.00;5.05;;;;;;;24.55;66.54;101413.26;1684160;85;21005;-87
2021/06/28 06:40:28;;;;;;;8.88;5.12;;;;;;;24.59;66.65;101414.57;1684119;84;21023;-85
2021/06/28 06:42:55;;;;;;;11.57;4.95;;;;;;;24.65;67.66;101415.70;1684000;85;21117;-87
2021/06/28 06:45:24;;;;;;;18.62;5.10;;;;;;;24.71;67.72;101421.62;1684571;85;21160;-79
2021/06/28 06:47:51;;;;;;;7.30;4.37;;;;;;;24.74;67.61;101415.97;1683766;85;21018;-84
2021/06/28 06:50:18;;;;;;;21.55;5.45;;;;;;;24.79;66.33;101414.13;1683940;85;21545;-86
2021/06/28 06:52:46;;;;;;;9.53;4.62;;;;;;;24.84;66.05;101419.27;1684060;84;20976;-84
2021/06/28 06:55:14;;;;;;;4.62;4.17;;;;;;;24.88;64.97;101416.59;1684023;85;21644;-88
2021/06/28 06:57:41;;;;;;;9.88;4.33;;;;;;;24.93;63.60;101414.22;1684064;85;21088;-80
2021/06/28 07:00:12;;;;;;;7.78;4.47;;;;;;;24.98;64.31;101413.70;1684277;85;21071;-81
2021/06/28 07:02:39;;;;;;;10.08;4.60;;;;;;;25.04;65.23;101415.16;1684238;85;21030;-82
2021/06/28 07:05:07;;;;;;;6.95;4.53;;;;;;;25.12;63.78;101413.76;1684128;85;20979;-83
2021/06/28 07:07:36;;;;;;;8.03;4.72;;;;;;;25.16;62.87;101408.92;1684071;85;21024;-83
2021/06/28 07:10:07;;;;;;;9.73;4.62;;;;;;;25.17;61.98;101410.58;1684184;85;21140;-82
2021/06/28 07:12:35;;;;;;;5.78;4.78;;;;;;;25.21;62.12;101407.38;1684109;85;20998;-85
2021/06/28 07:15:03;;;;;;;7.62;4.78;;;;;;;25.22;61.77;101409.03;1684314;85;20956;-85
2021/06/28 07:17:29;;;;;;;6.72;4.28;;;;;;;25.27;62.15;101411.17;1684192;85;21019;-83
2021/06/28 07:19:57;;;;;;;10.15;4.95;;;;;;;25.31;62.31;101419.58;1684755;85;21110;-90
2021/06/28 07:22:25;;;;;;;9.10;4.90;;;;;;;25.34;62.09;101412.58;1684640;85;21148;-90
2021/06/28 07:24:54;;;;;;;6.78;4.42;;;;;;;25.37;62.47;101413.58;1684016;85;20994;-86
2021/06/28 07:27:20;;;;;;;9.00;4.28;;;;;;;25.39;62.27;101418.20;1684316;84;21069;-85
2021/06/28 07:29:47;;;;;;;8.33;4.28;;;;;;;25.42;62.06;101417.84;1684005;85;21792;-82
2021/06/28 07:32:14;;;;;;;9.53;4.25;;;;;;;25.48;60.69;101415.80;1684097;85;21015;-88
2021/06/28 07:34:42;;;;;;;5.53;4.30;;;;;;;25.54;58.81;101414.60;1684387;85;21158;-85
2021/06/28 07:37:09;;;;;;;6.45;4.05;;;;;;;25.58;56.61;101419.06;1684082;85;21038;-79
2021/06/28 07:39:36;;;;;;;4.45;4.00;;;;;;;25.63;55.56;101416.17;1684261;85;20983;-86
2021/06/28 07:42:04;;;;;;;9.73;4.65;;;;;;;25.63;54.12;101410.86;1684595;85;20912;-84
2021/06/28 07:44:31;;;;;;;6.47;3.70;;;;;;;25.68;56.70;101409.00;1684045;85;20982;-87
2021/06/28 07:46:58;;;;;;;8.50;3.95;;;;;;;25.73;54.17;101415.91;1684213;85;21158;-86
2021/06/28 07:49:24;;;;;;;4.42;3.98;;;;;;;25.83;53.90;101419.14;1684014;85;20928;-82
2021/06/28 07:51:51;;;;;;;13.18;4.72;;;;;;;25.88;54.57;101415.42;1684009;84;20991;-88
2021/06/28 07:54:18;;;;;;;6.42;4.45;;;;;;;25.96;55.86;101423.83;1683944;85;21007;-89
2021/06/28 07:56:45;;;;;;;11.15;4.95;;;;;;;26.03;56.35;101425.58;1684115;85;21027;-88
2021/06/28 07:59:12;;;;;;;5.80;4.37;;;;;;;26.06;54.27;101415.07;1683998;85;21797;-87
2021/06/28 08:01:41;;;;;;;12.55;4.47;;;;;;;26.09;54.87;101419.52;1684073;85;21411;-88
2021/06/28 08:04:08;;;;;;;6.00;4.12;;;;;;;26.13;55.25;101428.77;1683892;85;20991;-85
2021/06/28 08:06:35;;;;;;;7.90;4.25;;;;;;;26.18;55.39;101429.59;1684183;85;21549;-84
2021/06/28 08:09:04;;;;;;;4.50;3.60;;;;;;;26.22;55.49;101429.05;1684141;85;21511;-84
2021/06/28 08:11:31;;;;;;;10.13;4.12;;;;;;;26.25;53.80;101423.86;1684114;85;21471;-86
2021/06/28 08:13:57;;;;;;;11.45;4.62;;;;;;;26.29;53.63;101428.61;1684745;85;20975;-89
2021/06/28 08:16:25;;;;;;;5.95;4.35;;;;;;;26.38;54.18;101434.67;1684141;85;20916;-84
2021/06/28 08:18:53;;;;;;;10.05;4.80;;;;;;;26.45;52.68;101433.43;1684244;85;20958;-85
2021/06/28 08:21:20;;;;;;;8.15;3.85;;;;;;;26.49;52.90;101432.03;1684283;85;21050;-89
2021/06/28 08:23:47;;;;;;;6.22;4.30;;;;;;;26.55;51.91;101433.97;1684550;85;21052;-80
2021/06/28 08:26:13;;;;;;;4.53;4.08;;;;;;;26.58;51.15;101434.39;1684094;85;20971;-85
2021/06/28 08:28:40;;;;;;;5.20;4.05;;;;;;;26.58;50.97;101437.06;1684171;85;21613;-84
2021/06/28 08:31:07;;;;;;;4.85;4.35;;;;;;;26.62;50.87;101433.52;1684350;85;20999;-82
2021/06/28 08:33:35;;;;;;;11.57;4.87;;;;;;;26.66;50.68;101432.14;1684860;84;21051;-86
2021/06/28 08:36:03;;;;;;;5.70;4.10;;;;;;;26.70;50.22;101427.59;1684996;85;21561;-84
2021/06/28 08:38:30;;;;;;;5.20;4.47;;;;;;;26.74;49.59;101434.67;1684080;85;21010;-84
2021/06/28 08:40:57;;;;;;;10.78;4.40;;;;;;;26.77;50.41;101436.99;1684287;85;21021;-87
2021/06/28 08:43:24;;;;;;;11.90;4.15;;;;;;;26.87;51.46;101442.84;1684662;85;21130;-85
2021/06/28 08:45:54;;;;;;;6.80;4.15;;;;;;;26.96;50.43;101432.92;1654195;85;20978;-85
2021/06/28 08:48:21;;;;;;;4.97;4.20;;;;;;;27.11;50.57;101442.50;1684558;85;21070;-86
2021/06/28 08:50:49;;;;;;;5.42;4.10;;;;;;;27.27;48.95;101437.42;1684236;84;20991;-82
2021/06/28 08:53:18;;;;;;;5.15;4.22;;;;;;;27.35;47.38;101440.77;1655023;85;21185;-85
2021/06/28 08:55:44;;;;;;;7.30;3.85;;;;;;;27.39;48.48;101444.38;1684178;85;21530;-88
2021/06/28 08:58:11;;;;;;;11.73;4.28;;;;;;;27.37;46.74;101441.93;1684277;84;21114;-81
2021/06/28 09:00:39;;;;;;;10.70;3.98;;;;;;;27.29;46.04;101436.71;1684109;85;21671;-88
2021/06/28 09:03:09;;;;;;;5.65;3.30;;;;;;;27.24;46.40;101440.47;1683980;84;21034;-84
2021/06/28 09:06:10;;;;;;;6.50;3.60;;;;;;;27.20;42.94;101441.36;1684065;84;20955;-83
2021/06/28 09:08:37;;;;;;;4.08;3.60;;;;;;;27.18;44.16;101442.07;1684205;85;21050;-83
2021/06/28 09:11:04;;;;;;;11.45;4.30;;;;;;;27.24;43.87;101434.64;1683866;84;21015;-85
2021/06/28 09:13:42;;;;;;;8.90;4.17;;;;;;;27.25;45.36;101432.27;1684570;85;21766;-83
2021/06/28 09:16:24;;;;;;;5.17;3.60;;;;;;;27.36;46.13;101434.94;1684039;85;21010;-83
2021/06/28 09:18:54;;;;;;;;;;;;;;;27.38;43.29;101428.09;1686852;85;20952;-87
2021/06/28 09:21:52;;;;;;;11.43;4.65;;;;;;;27.39;44.01;101431.05;1684094;85;20610;-85
2021/06/28 09:24:31;;;;;;;10.63;3.95;;;;;;;27.47;46.15;101425.13;1684300;85;20995;-88
2021/06/28 09:27:20;;;;;;;9.08;3.67;;;;;;;27.66;46.27;101432.97;1683760;85;21570;-81
2021/06/28 09:29:56;;;;;;;7.40;4.33;;;;;;;27.72;43.77;101432.19;1684035;85;20975;-86
2021/06/28 09:32:22;;;;;;;7.47;4.03;;;;;;;27.73;44.66;101416.48;1684185;85;20952;-83
2021/06/28 09:34:52;;;;;;;7.60;4.28;;;;;;;27.81;44.70;101417.17;1681968;84;21557;-78
2021/06/28 09:37:25;;;;;;;;;;;;;;;27.84;44.04;101418.62;1686705;85;20995;-84
2021/06/28 09:39:55;;;;;;;12.75;4.33;;;;;;;27.83;42.73;101417.79;1685328;85;21792;-84
2021/06/28 09:42:24;;;;;;;4.83;3.83;;;;;;;27.87;44.75;101418.23;1684377;85;21007;-85
2021/06/28 09:45:10;;;;;;;5.53;3.60;;;;;;;27.97;43.52;101414.70;1684712;85;21491;-81
2021/06/28 09:47:37;;;;;;;6.58;4.20;;;;;;;27.97;43.52;101414.70;1684189;85;21455;-83
2021/06/28 09:50:23;;;;;;;11.22;4.05;;;;;;;28.01;44.22;101415.14;1685239;85;21088;-89
2021/06/28 09:52:56;;;;;;;6.55;4.17;;;;;;;28.07;43.74;101409.87;1685858;85;22483;-84
2021/06/28 09:55:30;;;;;;;7.58;3.67;;;;;;;28.21;44.73;101420.08;1684911;85;21010;-88
2021/06/28 09:58:09;;;;;;;;;;;;;;;28.30;43.48;101406.91;1653524;85;21009;-84
2021/06/28 10:00:46;;;;;;;7.70;4.25;;;;;;;28.34;42.74;101406.28;1684618;85;20111;-83
2021/06/28 10:03:39;;;;;;;6.45;3.70;;;;;;;28.44;43.48;101409.09;1655075;85;38798;-86
2021/06/28 10:08:40;;;;;;;3.85;3.20;;;;;;;28.92;41.14;101413.88;1681405;81;23055;-92
2021/06/28 10:11:18;;;;;;;;;;;;;;;29.04;41.73;101406.40;1651224;86;21501;-85
2021/06/28 10:13:58;;;;;;;3.83;3.27;;;;;;;29.26;42.31;101401.20;1648832;87;20671;-87
2021/06/28 10:16:29;;;;;;;8.38;3.72;;;;;;;29.37;41.15;101409.13;1648879;87;20985;-82
2021/06/28 10:18:58;;;;;;;5.20;3.75;;;;;;;29.40;40.43;101409.55;1649133;87;21133;-86
2021/06/28 10:21:25;;;;;;;5.97;3.30;;;;;;;29.33;40.10;101396.69;1649130;86;21065;-88
2021/06/28 10:23:52;;;;;;;10.23;4.28;;;;;;;29.33;40.99;101402.03;1649074;86;21520;-88
2021/06/28 10:26:22;;;;;;;4.72;4.33;;;;;;;29.36;41.63;101394.93;1648934;87;21096;-86
2021/06/28 10:28:49;;;;;;;5.17;4.00;;;;;;;29.45;42.90;101400.09;1649537;87;21496;-88
2021/06/28 10:31:16;;;;;;;6.83;4.08;;;;;;;29.53;43.08;101401.20;1648904;87;21162;-89
2021/06/28 10:33:53;;;;;;;7.25;4.60;;;;;;;29.54;41.19;101398.84;1648841;86;21821;-82
2021/06/28 10:36:20;;;;;;;4.50;3.75;;;;;;;29.47;40.62;101396.17;1649353;86;21103;-87
2021/06/28 10:38:53;;;;;;;6.45;4.50;;;;;;;29.31;41.40;101385.89;1649186;87;20993;-87
2021/06/28 10:41:41;;;;;;;5.22;3.80;;;;;;;29.25;42.66;101383.53;1649298;87;21017;-88
2021/06/28 10:44:12;;;;;;;6.35;3.62;;;;;;;29.32;43.98;101387.55;1649233;87;21167;-85
2021/06/28 10:46:44;;;;;;;7.12;3.42;;;;;;;29.32;39.77;101384.88;1649365;86;21135;-80
2021/06/28 10:49:12;;;;;;;12.95;3.52;;;;;;;29.28;39.12;101387.13;1649273;86;21020;-80
2021/06/28 10:51:49;;;;;;;5.65;3.42;;;;;;;29.14;39.53;101383.27;1649493;87;21116;-87
2021/06/28 10:54:34;;;;;;;4.40;3.10;;;;;;;29.14;39.54;101387.28;1649321;87;20969;-83
2021/06/28 10:57:01;;;;;;;5.90;3.15;;;;;;;29.25;40.70;101379.52;1647104;86;21181;-86
2021/06/28 10:59:45;;;;;;;7.03;3.77;;;;;;;29.37;41.48;101376.53;1649323;87;21019;-83
2021/06/28 11:02:14;;;;;;;6.70;3.47;;;;;;;29.52;39.57;101377.63;1649131;86;21084;-88
2021/06/28 11:04:54;;;;;;;8.25;3.90;;;;;;;29.59;39.18;101374.95;1649791;87;20993;-80
2021/06/28 11:07:21;;;;;;;3.65;3.12;;;;;;;29.66;40.29;101367.23;1649352;87;21128;-82
2021/06/28 11:09:59;;;;;;;6.83;3.37;;;;;;;29.70;38.93;101371.66;1651402;86;21243;-84
2021/06/28 11:12:34;;;;;;;4.87;3.65;;;;;;;29.76;40.02;101376.17;1651899;86;21436;-81
2021/06/28 11:15:24;;;;;;;7.75;3.40;;;;;;;29.86;40.67;101372.06;1651852;85;21029;-87
2021/06/28 11:17:56;;;;;;;7.33;3.70;;;;;;;29.87;39.86;101376.36;1652273;86;20965;-90
2021/06/28 11:20:32;;;;;;;7.70;4.00;;;;;;;29.88;40.14;101375.34;1652421;86;21583;-89
2021/06/28 11:23:17;;;;;;;4.33;3.10;;;;;;;30.26;39.25;101370.56;1652171;86;21167;-87
2021/06/28 11:25:55;;;;;;;5.15;3.75;;;;;;;30.74;38.39;101366.92;1651921;86;21047;-83
2021/06/28 11:28:27;;;;;;;17.37;4.60;;;;;;;31.19;39.00;101367.65;1652063;86;21020;-83
2021/06/28 11:31:03;;;;;;;3.85;3.22;;;;;;;31.48;38.32;101374.51;1652092;86;20917;-86
2021/06/28 11:33:47;;;;;;;7.12;3.65;;;;;;;31.10;37.86;101370.31;1651929;86;21143;-84